sensor_id;sensor_type;location;lat;lon;timestamp;P1;durP1;ratioP1;P2;durP2;ratioP2
54929;SDS011;40833;53.238;6.576;2023-06-14T00:01:57;3.90;;;1.23;;
54929;SDS011;40833;53.238;6.576;2023-06-14T00:04:23;2.78;;;1.30;;
54929;SDS011;40833;53.238;6.576;2023-06-14T00:06:50;1.92;;;0.60;;
54929;SDS011;40833;53.238;6.576;2023-06-14T00:09:16;1.00;;;0.95;;
54929;SDS011;40833;53.238;6.576;2023-06-14T00:11:45;4.00;;;0.70;;
54929;SDS011;40833;53.238;6.576;2023-06-14T00:14:11;5.63;;;1.27;;
54929;SDS011;40833;53.238;6.576;2023-06-14T00:16:37;3.63;;;1.02;;
54929;SDS011;40833;53.238;6.576;2023-06-14T00:19:03;1.02;;;0.70;;
54929;SDS011;40833;53.238;6.576;2023-06-14T00:21:30;2.33;;;0.70;;
54929;SDS011;40833;53.238;6.576;2023-06-14T00:23:57;10.75;;;2.00;;
54929;SDS011;40833;53.238;6.576;2023-06-14T00:26:24;2.87;;;0.67;;
54929;SDS011;40833;53.238;6.576;2023-06-14T00:28:51;5.82;;;0.77;;
54929;SDS011;40833;53.238;6.576;2023-06-14T00:31:17;5.47;;;0.85;;
54929;SDS011;40833;53.238;6.576;2023-06-14T00:33:43;3.47;;;0.60;;
54929;SDS011;40833;53.238;6.576;2023-06-14T00:36:09;7.65;;;1.63;;
54929;SDS011;40833;53.238;6.576;2023-06-14T00:38:35;5.30;;;0.90;;
54929;SDS011;40833;53.238;6.576;2023-06-14T00:41:00;1.83;;;0.80;;
54929;SDS011;40833;53.238;6.576;2023-06-14T00:43:26;6.30;;;0.90;;
54929;SDS011;40833;53.238;6.576;2023-06-14T00:45:52;3.33;;;1.53;;
54929;SDS011;40833;53.238;6.576;2023-06-14T00:48:18;2.43;;;0.67;;
54929;SDS011;40833;53.238;6.576;2023-06-14T00:50:44;1.63;;;0.43;;
54929;SDS011;40833;53.238;6.576;2023-06-14T00:53:11;2.73;;;0.70;;
54929;SDS011;40833;53.238;6.576;2023-06-14T00:55:37;4.65;;;0.55;;
54929;SDS011;40833;53.238;6.576;2023-06-14T00:58:03;3.33;;;0.73;;
54929;SDS011;40833;53.238;6.576;2023-06-14T01:00:29;8.77;;;0.73;;
54929;SDS011;40833;53.238;6.576;2023-06-14T01:02:55;2.80;;;0.60;;
54929;SDS011;40833;53.238;6.576;2023-06-14T01:05:22;2.97;;;0.60;;
54929;SDS011;40833;53.238;6.576;2023-06-14T01:10:56;1.90;;;0.50;;
54929;SDS011;40833;53.238;6.576;2023-06-14T01:13:33;3.00;;;0.50;;
54929;SDS011;40833;53.238;6.576;2023-06-14T01:16:01;2.07;;;0.60;;
54929;SDS011;40833;53.238;6.576;2023-06-14T01:18:28;4.77;;;0.40;;
54929;SDS011;40833;53.238;6.576;2023-06-14T01:20:54;2.83;;;0.50;;
54929;SDS011;40833;53.238;6.576;2023-06-14T01:23:21;1.20;;;0.40;;
54929;SDS011;40833;53.238;6.576;2023-06-14T01:25:48;1.47;;;0.50;;
54929;SDS011;40833;53.238;6.576;2023-06-14T01:28:18;3.00;;;1.23;;
54929;SDS011;40833;53.238;6.576;2023-06-14T01:30:46;2.73;;;0.50;;
54929;SDS011;40833;53.238;6.576;2023-06-14T01:33:15;1.63;;;0.60;;
54929;SDS011;40833;53.238;6.576;2023-06-14T01:35:44;1.87;;;0.70;;
54929;SDS011;40833;53.238;6.576;2023-06-14T01:38:15;3.73;;;0.70;;
54929;SDS011;40833;53.238;6.576;2023-06-14T01:43:10;2.30;;;0.80;;
54929;SDS011;40833;53.238;6.576;2023-06-14T01:45:38;3.13;;;0.63;;
54929;SDS011;40833;53.238;6.576;2023-06-14T01:48:06;1.10;;;0.57;;
54929;SDS011;40833;53.238;6.576;2023-06-14T01:50:32;3.93;;;0.70;;
54929;SDS011;40833;53.238;6.576;2023-06-14T01:52:58;3.30;;;0.63;;
54929;SDS011;40833;53.238;6.576;2023-06-14T01:55:24;4.03;;;0.77;;
54929;SDS011;40833;53.238;6.576;2023-06-14T01:57:51;3.30;;;0.80;;
54929;SDS011;40833;53.238;6.576;2023-06-14T02:00:17;1.67;;;0.87;;
54929;SDS011;40833;53.238;6.576;2023-06-14T02:02:43;3.67;;;0.97;;
54929;SDS011;40833;53.238;6.576;2023-06-14T02:05:09;4.07;;;0.90;;
54929;SDS011;40833;53.238;6.576;2023-06-14T02:07:35;2.20;;;0.87;;
54929;SDS011;40833;53.238;6.576;2023-06-14T02:10:02;3.37;;;0.90;;
54929;SDS011;40833;53.238;6.576;2023-06-14T02:12:28;2.00;;;0.70;;
54929;SDS011;40833;53.238;6.576;2023-06-14T02:14:54;5.33;;;0.90;;
54929;SDS011;40833;53.238;6.576;2023-06-14T02:17:21;5.87;;;0.80;;
54929;SDS011;40833;53.238;6.576;2023-06-14T02:19:47;2.87;;;1.03;;
54929;SDS011;40833;53.238;6.576;2023-06-14T02:22:14;5.40;;;0.80;;
54929;SDS011;40833;53.238;6.576;2023-06-14T02:24:40;1.87;;;0.70;;
54929;SDS011;40833;53.238;6.576;2023-06-14T02:27:07;3.13;;;0.90;;
54929;SDS011;40833;53.238;6.576;2023-06-14T02:29:35;3.30;;;1.00;;
54929;SDS011;40833;53.238;6.576;2023-06-14T02:32:01;2.50;;;0.80;;
54929;SDS011;40833;53.238;6.576;2023-06-14T02:34:27;4.20;;;0.60;;
54929;SDS011;40833;53.238;6.576;2023-06-14T02:36:53;2.07;;;1.00;;
54929;SDS011;40833;53.238;6.576;2023-06-14T02:39:20;1.63;;;0.97;;
54929;SDS011;40833;53.238;6.576;2023-06-14T02:41:48;1.47;;;0.90;;
54929;SDS011;40833;53.238;6.576;2023-06-14T02:44:15;1.03;;;0.87;;
54929;SDS011;40833;53.238;6.576;2023-06-14T02:46:42;4.73;;;1.53;;
54929;SDS011;40833;53.238;6.576;2023-06-14T02:49:09;2.83;;;0.83;;
54929;SDS011;40833;53.238;6.576;2023-06-14T02:51:35;3.00;;;0.70;;
54929;SDS011;40833;53.238;6.576;2023-06-14T02:54:01;0.90;;;0.80;;
54929;SDS011;40833;53.238;6.576;2023-06-14T02:56:26;4.40;;;1.00;;
54929;SDS011;40833;53.238;6.576;2023-06-14T02:58:53;4.30;;;1.10;;
54929;SDS011;40833;53.238;6.576;2023-06-14T03:01:18;1.47;;;1.00;;
54929;SDS011;40833;53.238;6.576;2023-06-14T03:03:45;1.27;;;1.00;;
54929;SDS011;40833;53.238;6.576;2023-06-14T03:06:11;2.43;;;1.20;;
54929;SDS011;40833;53.238;6.576;2023-06-14T03:08:38;3.13;;;1.10;;
54929;SDS011;40833;53.238;6.576;2023-06-14T03:11:06;1.30;;;1.13;;
54929;SDS011;40833;53.238;6.576;2023-06-14T03:13:33;5.10;;;0.90;;
54929;SDS011;40833;53.238;6.576;2023-06-14T03:15:59;1.73;;;1.10;;
54929;SDS011;40833;53.238;6.576;2023-06-14T03:18:27;1.90;;;1.23;;
54929;SDS011;40833;53.238;6.576;2023-06-14T03:21:00;2.80;;;0.90;;
54929;SDS011;40833;53.238;6.576;2023-06-14T03:23:26;2.10;;;1.00;;
54929;SDS011;40833;53.238;6.576;2023-06-14T03:25:52;2.20;;;0.77;;
54929;SDS011;40833;53.238;6.576;2023-06-14T03:28:18;1.63;;;1.07;;
54929;SDS011;40833;53.238;6.576;2023-06-14T03:30:45;2.10;;;1.27;;
54929;SDS011;40833;53.238;6.576;2023-06-14T03:33:10;2.53;;;1.10;;
54929;SDS011;40833;53.238;6.576;2023-06-14T03:35:36;1.83;;;1.33;;
54929;SDS011;40833;53.238;6.576;2023-06-14T03:38:02;2.17;;;1.33;;
54929;SDS011;40833;53.238;6.576;2023-06-14T03:40:28;7.23;;;1.20;;
54929;SDS011;40833;53.238;6.576;2023-06-14T03:42:54;3.57;;;1.60;;
54929;SDS011;40833;53.238;6.576;2023-06-14T03:45:20;3.73;;;1.30;;
54929;SDS011;40833;53.238;6.576;2023-06-14T03:47:46;1.93;;;1.20;;
54929;SDS011;40833;53.238;6.576;2023-06-14T03:50:12;1.63;;;1.47;;
54929;SDS011;40833;53.238;6.576;2023-06-14T03:52:38;3.30;;;1.60;;
54929;SDS011;40833;53.238;6.576;2023-06-14T03:55:04;2.80;;;1.50;;
54929;SDS011;40833;53.238;6.576;2023-06-14T03:57:30;3.57;;;1.20;;
54929;SDS011;40833;53.238;6.576;2023-06-14T03:59:56;4.43;;;1.20;;
54929;SDS011;40833;53.238;6.576;2023-06-14T04:02:21;5.53;;;2.13;;
54929;SDS011;40833;53.238;6.576;2023-06-14T04:04:47;2.27;;;1.60;;
54929;SDS011;40833;53.238;6.576;2023-06-14T04:07:14;2.60;;;1.77;;
54929;SDS011;40833;53.238;6.576;2023-06-14T04:09:43;4.57;;;2.10;;
54929;SDS011;40833;53.238;6.576;2023-06-14T04:12:09;5.37;;;2.10;;
54929;SDS011;40833;53.238;6.576;2023-06-14T04:14:36;3.37;;;1.80;;
54929;SDS011;40833;53.238;6.576;2023-06-14T04:17:02;4.73;;;1.93;;
54929;SDS011;40833;53.238;6.576;2023-06-14T04:19:28;9.63;;;1.70;;
54929;SDS011;40833;53.238;6.576;2023-06-14T04:21:54;4.33;;;1.77;;
54929;SDS011;40833;53.238;6.576;2023-06-14T04:24:20;4.43;;;2.00;;
54929;SDS011;40833;53.238;6.576;2023-06-14T04:26:46;3.27;;;1.70;;
54929;SDS011;40833;53.238;6.576;2023-06-14T04:29:15;5.33;;;1.90;;
54929;SDS011;40833;53.238;6.576;2023-06-14T04:31:45;3.03;;;2.13;;
54929;SDS011;40833;53.238;6.576;2023-06-14T04:34:14;4.20;;;1.80;;
54929;SDS011;40833;53.238;6.576;2023-06-14T04:36:43;5.50;;;1.80;;
54929;SDS011;40833;53.238;6.576;2023-06-14T04:39:15;5.93;;;2.50;;
54929;SDS011;40833;53.238;6.576;2023-06-14T04:41:42;6.90;;;1.80;;
54929;SDS011;40833;53.238;6.576;2023-06-14T04:44:08;3.13;;;2.27;;
54929;SDS011;40833;53.238;6.576;2023-06-14T04:46:35;5.30;;;1.83;;
54929;SDS011;40833;53.238;6.576;2023-06-14T04:49:10;2.17;;;1.90;;
54929;SDS011;40833;53.238;6.576;2023-06-14T04:51:40;5.00;;;1.80;;
54929;SDS011;40833;53.238;6.576;2023-06-14T04:54:07;4.33;;;2.57;;
54929;SDS011;40833;53.238;6.576;2023-06-14T04:56:43;4.53;;;2.20;;
54929;SDS011;40833;53.238;6.576;2023-06-14T04:59:11;7.40;;;1.97;;
54929;SDS011;40833;53.238;6.576;2023-06-14T05:01:37;6.83;;;2.37;;
54929;SDS011;40833;53.238;6.576;2023-06-14T05:04:03;5.53;;;2.23;;
54929;SDS011;40833;53.238;6.576;2023-06-14T05:06:29;4.27;;;2.03;;
54929;SDS011;40833;53.238;6.576;2023-06-14T05:08:56;8.80;;;1.90;;
54929;SDS011;40833;53.238;6.576;2023-06-14T05:11:22;3.43;;;2.20;;
54929;SDS011;40833;53.238;6.576;2023-06-14T05:13:49;5.90;;;1.83;;
54929;SDS011;40833;53.238;6.576;2023-06-14T05:16:15;3.00;;;2.00;;
54929;SDS011;40833;53.238;6.576;2023-06-14T05:18:42;2.53;;;2.00;;
54929;SDS011;40833;53.238;6.576;2023-06-14T05:21:08;3.20;;;2.10;;
54929;SDS011;40833;53.238;6.576;2023-06-14T05:23:33;5.60;;;1.80;;
54929;SDS011;40833;53.238;6.576;2023-06-14T05:25:59;3.47;;;2.10;;
54929;SDS011;40833;53.238;6.576;2023-06-14T05:28:27;6.13;;;2.20;;
54929;SDS011;40833;53.238;6.576;2023-06-14T05:30:53;8.03;;;2.23;;
54929;SDS011;40833;53.238;6.576;2023-06-14T05:33:19;4.67;;;2.53;;
54929;SDS011;40833;53.238;6.576;2023-06-14T05:35:44;4.00;;;1.87;;
54929;SDS011;40833;53.238;6.576;2023-06-14T05:38:10;3.47;;;2.17;;
54929;SDS011;40833;53.238;6.576;2023-06-14T05:40:36;3.87;;;2.03;;
54929;SDS011;40833;53.238;6.576;2023-06-14T05:43:02;5.67;;;2.23;;
54929;SDS011;40833;53.238;6.576;2023-06-14T05:45:28;6.93;;;1.87;;
54929;SDS011;40833;53.238;6.576;2023-06-14T05:47:54;5.60;;;2.37;;
54929;SDS011;40833;53.238;6.576;2023-06-14T05:50:20;4.40;;;2.50;;
54929;SDS011;40833;53.238;6.576;2023-06-14T05:52:46;7.90;;;2.10;;
54929;SDS011;40833;53.238;6.576;2023-06-14T05:55:12;4.00;;;2.37;;
54929;SDS011;40833;53.238;6.576;2023-06-14T05:57:38;6.73;;;2.53;;
54929;SDS011;40833;53.238;6.576;2023-06-14T06:00:04;2.40;;;2.20;;
54929;SDS011;40833;53.238;6.576;2023-06-14T06:02:43;6.40;;;2.40;;
54929;SDS011;40833;53.238;6.576;2023-06-14T06:05:09;5.63;;;2.20;;
54929;SDS011;40833;53.238;6.576;2023-06-14T06:07:36;9.50;;;2.53;;
54929;SDS011;40833;53.238;6.576;2023-06-14T06:10:02;6.43;;;2.57;;
54929;SDS011;40833;53.238;6.576;2023-06-14T06:12:29;2.63;;;2.43;;
54929;SDS011;40833;53.238;6.576;2023-06-14T06:14:55;9.27;;;2.47;;
54929;SDS011;40833;53.238;6.576;2023-06-14T06:17:21;4.40;;;2.00;;
54929;SDS011;40833;53.238;6.576;2023-06-14T06:19:47;9.80;;;2.77;;
54929;SDS011;40833;53.238;6.576;2023-06-14T06:22:13;3.60;;;2.10;;
54929;SDS011;40833;53.238;6.576;2023-06-14T06:24:39;8.03;;;2.40;;
54929;SDS011;40833;53.238;6.576;2023-06-14T06:27:04;5.50;;;2.33;;
54929;SDS011;40833;53.238;6.576;2023-06-14T06:29:33;3.23;;;2.10;;
54929;SDS011;40833;53.238;6.576;2023-06-14T06:31:59;4.13;;;2.40;;
54929;SDS011;40833;53.238;6.576;2023-06-14T06:34:26;4.33;;;2.30;;
54929;SDS011;40833;53.238;6.576;2023-06-14T06:36:52;2.87;;;1.77;;
54929;SDS011;40833;53.238;6.576;2023-06-14T06:39:17;9.00;;;2.10;;
54929;SDS011;40833;53.238;6.576;2023-06-14T06:41:44;4.47;;;2.10;;
54929;SDS011;40833;53.238;6.576;2023-06-14T06:44:10;5.20;;;1.80;;
54929;SDS011;40833;53.238;6.576;2023-06-14T06:46:36;2.90;;;2.27;;
54929;SDS011;40833;53.238;6.576;2023-06-14T06:49:05;7.20;;;2.10;;
54929;SDS011;40833;53.238;6.576;2023-06-14T06:51:31;7.70;;;1.93;;
54929;SDS011;40833;53.238;6.576;2023-06-14T06:53:57;4.97;;;2.40;;
54929;SDS011;40833;53.238;6.576;2023-06-14T06:56:23;5.43;;;1.90;;
54929;SDS011;40833;53.238;6.576;2023-06-14T06:58:50;4.73;;;1.83;;
54929;SDS011;40833;53.238;6.576;2023-06-14T07:01:16;3.57;;;1.80;;
54929;SDS011;40833;53.238;6.576;2023-06-14T07:03:42;7.37;;;2.13;;
54929;SDS011;40833;53.238;6.576;2023-06-14T07:06:08;5.83;;;1.60;;
54929;SDS011;40833;53.238;6.576;2023-06-14T07:08:35;3.53;;;1.43;;
54929;SDS011;40833;53.238;6.576;2023-06-14T07:11:01;4.65;;;2.08;;
54929;SDS011;40833;53.238;6.576;2023-06-14T07:13:27;2.87;;;1.60;;
54929;SDS011;40833;53.238;6.576;2023-06-14T07:15:57;4.93;;;1.73;;
54929;SDS011;40833;53.238;6.576;2023-06-14T07:20:50;3.17;;;1.38;;
54929;SDS011;40833;53.238;6.576;2023-06-14T07:23:17;8.50;;;2.00;;
54929;SDS011;40833;53.238;6.576;2023-06-14T07:25:42;2.13;;;1.42;;
54929;SDS011;40833;53.238;6.576;2023-06-14T07:28:08;3.55;;;1.35;;
54929;SDS011;40833;53.238;6.576;2023-06-14T07:30:34;4.32;;;1.42;;
54929;SDS011;40833;53.238;6.576;2023-06-14T07:33:00;8.30;;;2.13;;
54929;SDS011;40833;53.238;6.576;2023-06-14T07:35:26;4.63;;;1.63;;
54929;SDS011;40833;53.238;6.576;2023-06-14T07:37:52;7.05;;;1.25;;
54929;SDS011;40833;53.238;6.576;2023-06-14T07:40:17;1.75;;;1.08;;
54929;SDS011;40833;53.238;6.576;2023-06-14T07:42:43;1.98;;;1.42;;
54929;SDS011;40833;53.238;6.576;2023-06-14T07:45:09;2.42;;;1.15;;
54929;SDS011;40833;53.238;6.576;2023-06-14T07:47:39;8.57;;;1.42;;
54929;SDS011;40833;53.238;6.576;2023-06-14T07:50:05;7.10;;;1.30;;
54929;SDS011;40833;53.238;6.576;2023-06-14T07:52:31;6.20;;;1.35;;
54929;SDS011;40833;53.238;6.576;2023-06-14T07:54:57;2.78;;;1.10;;
54929;SDS011;40833;53.238;6.576;2023-06-14T07:57:23;3.58;;;1.40;;
54929;SDS011;40833;53.238;6.576;2023-06-14T07:59:49;6.18;;;1.23;;
54929;SDS011;40833;53.238;6.576;2023-06-14T08:02:15;2.28;;;1.27;;
54929;SDS011;40833;53.238;6.576;2023-06-14T08:04:40;4.63;;;1.70;;
54929;SDS011;40833;53.238;6.576;2023-06-14T08:07:07;1.95;;;1.42;;
54929;SDS011;40833;53.238;6.576;2023-06-14T08:09:33;3.15;;;1.40;;
54929;SDS011;40833;53.238;6.576;2023-06-14T08:11:58;2.33;;;1.17;;
54929;SDS011;40833;53.238;6.576;2023-06-14T08:14:25;1.95;;;1.25;;
54929;SDS011;40833;53.238;6.576;2023-06-14T08:16:50;2.08;;;1.40;;
54929;SDS011;40833;53.238;6.576;2023-06-14T08:19:16;5.10;;;1.35;;
54929;SDS011;40833;53.238;6.576;2023-06-14T08:21:43;5.07;;;1.30;;
54929;SDS011;40833;53.238;6.576;2023-06-14T08:24:10;6.68;;;1.55;;
54929;SDS011;40833;53.238;6.576;2023-06-14T08:26:37;6.18;;;1.35;;
54929;SDS011;40833;53.238;6.576;2023-06-14T08:29:04;9.98;;;1.65;;
54929;SDS011;40833;53.238;6.576;2023-06-14T08:31:32;3.95;;;0.90;;
54929;SDS011;40833;53.238;6.576;2023-06-14T08:33:58;2.15;;;0.88;;
54929;SDS011;40833;53.238;6.576;2023-06-14T08:36:24;2.55;;;0.98;;
54929;SDS011;40833;53.238;6.576;2023-06-14T08:38:50;3.88;;;1.30;;
54929;SDS011;40833;53.238;6.576;2023-06-14T08:41:20;2.70;;;1.08;;
54929;SDS011;40833;53.238;6.576;2023-06-14T08:43:50;4.18;;;0.98;;
54929;SDS011;40833;53.238;6.576;2023-06-14T08:46:17;6.20;;;1.15;;
54929;SDS011;40833;53.238;6.576;2023-06-14T08:48:51;5.03;;;1.13;;
54929;SDS011;40833;53.238;6.576;2023-06-14T08:51:18;2.50;;;1.05;;
54929;SDS011;40833;53.238;6.576;2023-06-14T08:53:44;4.32;;;0.98;;
54929;SDS011;40833;53.238;6.576;2023-06-14T08:56:11;4.60;;;1.40;;
54929;SDS011;40833;53.238;6.576;2023-06-14T08:58:44;2.47;;;1.10;;
54929;SDS011;40833;53.238;6.576;2023-06-14T09:01:13;2.30;;;0.88;;
54929;SDS011;40833;53.238;6.576;2023-06-14T09:03:41;5.60;;;1.05;;
54929;SDS011;40833;53.238;6.576;2023-06-14T09:06:08;7.43;;;1.40;;
54929;SDS011;40833;53.238;6.576;2023-06-14T09:08:40;1.92;;;1.05;;
54929;SDS011;40833;53.238;6.576;2023-06-14T09:11:12;2.87;;;1.20;;
54929;SDS011;40833;53.238;6.576;2023-06-14T09:13:39;3.60;;;0.98;;
54929;SDS011;40833;53.238;6.576;2023-06-14T09:16:06;3.75;;;1.10;;
54929;SDS011;40833;53.238;6.576;2023-06-14T09:18:42;13.05;;;1.70;;
54929;SDS011;40833;53.238;6.576;2023-06-14T09:21:10;12.00;;;1.73;;
54929;SDS011;40833;53.238;6.576;2023-06-14T09:23:37;4.25;;;1.48;;
54929;SDS011;40833;53.238;6.576;2023-06-14T09:26:07;6.55;;;1.20;;
54929;SDS011;40833;53.238;6.576;2023-06-14T09:28:35;6.85;;;1.50;;
54929;SDS011;40833;53.238;6.576;2023-06-14T09:31:01;1.30;;;1.20;;
54929;SDS011;40833;53.238;6.576;2023-06-14T09:33:27;7.40;;;0.90;;
54929;SDS011;40833;53.238;6.576;2023-06-14T09:35:54;1.67;;;1.35;;
54929;SDS011;40833;53.238;6.576;2023-06-14T09:38:20;4.10;;;1.10;;
54929;SDS011;40833;53.238;6.576;2023-06-14T09:40:46;10.45;;;1.52;;
54929;SDS011;40833;53.238;6.576;2023-06-14T09:43:11;5.97;;;1.77;;
54929;SDS011;40833;53.238;6.576;2023-06-14T09:45:40;3.88;;;1.40;;
54929;SDS011;40833;53.238;6.576;2023-06-14T09:48:06;1.92;;;1.10;;
54929;SDS011;40833;53.238;6.576;2023-06-14T09:50:33;5.05;;;1.40;;
54929;SDS011;40833;53.238;6.576;2023-06-14T09:53:04;6.10;;;1.60;;
54929;SDS011;40833;53.238;6.576;2023-06-14T09:55:34;4.03;;;1.15;;
54929;SDS011;40833;53.238;6.576;2023-06-14T09:58:04;2.72;;;1.08;;
54929;SDS011;40833;53.238;6.576;2023-06-14T10:03:00;1.55;;;1.23;;
54929;SDS011;40833;53.238;6.576;2023-06-14T10:08:03;2.30;;;1.20;;
54929;SDS011;40833;53.238;6.576;2023-06-14T10:10:33;6.75;;;1.15;;
54929;SDS011;40833;53.238;6.576;2023-06-14T10:13:00;8.75;;;1.55;;
54929;SDS011;40833;53.238;6.576;2023-06-14T10:15:30;5.30;;;1.15;;
54929;SDS011;40833;53.238;6.576;2023-06-14T10:18:07;5.43;;;1.08;;
54929;SDS011;40833;53.238;6.576;2023-06-14T10:21:03;6.53;;;0.80;;
54929;SDS011;40833;53.238;6.576;2023-06-14T10:23:48;5.68;;;1.25;;
54929;SDS011;40833;53.238;6.576;2023-06-14T10:26:22;3.17;;;1.35;;
54929;SDS011;40833;53.238;6.576;2023-06-14T10:28:56;3.45;;;1.00;;
54929;SDS011;40833;53.238;6.576;2023-06-14T10:31:46;5.10;;;1.20;;
54929;SDS011;40833;53.238;6.576;2023-06-14T10:34:23;2.47;;;0.80;;
54929;SDS011;40833;53.238;6.576;2023-06-14T10:39:41;6.18;;;1.17;;
54929;SDS011;40833;53.238;6.576;2023-06-14T10:42:09;6.93;;;1.08;;
54929;SDS011;40833;53.238;6.576;2023-06-14T10:47:20;3.25;;;1.25;;
54929;SDS011;40833;53.238;6.576;2023-06-14T10:49:54;5.80;;;0.95;;
54929;SDS011;40833;53.238;6.576;2023-06-14T10:52:23;6.32;;;0.93;;
54929;SDS011;40833;53.238;6.576;2023-06-14T10:57:31;8.48;;;1.00;;
54929;SDS011;40833;53.238;6.576;2023-06-14T13:02:21;1.83;;;0.60;;
54929;SDS011;40833;53.238;6.576;2023-06-14T13:04:49;3.13;;;0.90;;
54929;SDS011;40833;53.238;6.576;2023-06-14T13:33:25;2.95;;;0.60;;
54929;SDS011;40833;53.238;6.576;2023-06-14T13:35:50;5.05;;;0.65;;
54929;SDS011;40833;53.238;6.576;2023-06-14T13:38:17;2.20;;;0.50;;
54929;SDS011;40833;53.238;6.576;2023-06-14T13:40:43;5.05;;;0.93;;
54929;SDS011;40833;53.238;6.576;2023-06-14T13:43:09;2.60;;;0.60;;
54929;SDS011;40833;53.238;6.576;2023-06-14T13:57:14;3.13;;;0.57;;
54929;SDS011;40833;53.238;6.576;2023-06-14T13:59:40;3.20;;;0.68;;
54929;SDS011;40833;53.238;6.576;2023-06-14T14:02:06;3.53;;;0.50;;
54929;SDS011;40833;53.238;6.576;2023-06-14T14:04:33;2.45;;;0.50;;
54929;SDS011;40833;53.238;6.576;2023-06-14T14:07:02;0.77;;;0.77;;
54929;SDS011;40833;53.238;6.576;2023-06-14T14:09:29;4.28;;;0.50;;
54929;SDS011;40833;53.238;6.576;2023-06-14T14:11:55;2.45;;;0.40;;
54929;SDS011;40833;53.238;6.576;2023-06-14T14:14:21;2.47;;;0.50;;
54929;SDS011;40833;53.238;6.576;2023-06-14T14:16:48;1.15;;;0.40;;
54929;SDS011;40833;53.238;6.576;2023-06-14T14:19:16;0.68;;;0.60;;
54929;SDS011;40833;53.238;6.576;2023-06-14T14:21:44;1.15;;;0.47;;
54929;SDS011;40833;53.238;6.576;2023-06-14T14:24:10;4.78;;;0.88;;
54929;SDS011;40833;53.238;6.576;2023-06-14T14:26:36;2.60;;;0.45;;
54929;SDS011;40833;53.238;6.576;2023-06-14T14:29:01;3.33;;;0.50;;
54929;SDS011;40833;53.238;6.576;2023-06-14T14:31:30;4.57;;;0.82;;
54929;SDS011;40833;53.238;6.576;2023-06-14T14:33:55;3.60;;;0.70;;
54929;SDS011;40833;53.238;6.576;2023-06-14T14:36:21;3.00;;;0.60;;
54929;SDS011;40833;53.238;6.576;2023-06-14T14:38:47;2.45;;;0.55;;
54929;SDS011;40833;53.238;6.576;2023-06-14T14:41:13;3.88;;;0.70;;
54929;SDS011;40833;53.238;6.576;2023-06-14T14:43:39;1.48;;;0.57;;
54929;SDS011;40833;53.238;6.576;2023-06-14T14:46:05;3.03;;;1.00;;
54929;SDS011;40833;53.238;6.576;2023-06-14T14:48:31;0.70;;;0.52;;
54929;SDS011;40833;53.238;6.576;2023-06-14T14:50:56;2.33;;;0.90;;
54929;SDS011;40833;53.238;6.576;2023-06-14T14:53:22;2.20;;;0.75;;
54929;SDS011;40833;53.238;6.576;2023-06-14T14:55:49;3.90;;;0.73;;
54929;SDS011;40833;53.238;6.576;2023-06-14T14:58:15;3.45;;;0.40;;
54929;SDS011;40833;53.238;6.576;2023-06-14T15:00:46;1.08;;;0.30;;
54929;SDS011;40833;53.238;6.576;2023-06-14T15:03:12;9.32;;;0.60;;
54929;SDS011;40833;53.238;6.576;2023-06-14T15:05:38;1.70;;;0.60;;
54929;SDS011;40833;53.238;6.576;2023-06-14T15:08:05;1.65;;;0.50;;
54929;SDS011;40833;53.238;6.576;2023-06-14T15:10:40;4.00;;;0.75;;
54929;SDS011;40833;53.238;6.576;2023-06-14T15:13:09;1.30;;;0.50;;
54929;SDS011;40833;53.238;6.576;2023-06-14T15:15:36;2.22;;;0.50;;
54929;SDS011;40833;53.238;6.576;2023-06-14T15:18:02;2.13;;;0.60;;
54929;SDS011;40833;53.238;6.576;2023-06-14T15:20:28;4.97;;;0.60;;
54929;SDS011;40833;53.238;6.576;2023-06-14T15:22:55;1.77;;;0.70;;
54929;SDS011;40833;53.238;6.576;2023-06-14T15:25:30;3.28;;;0.70;;
54929;SDS011;40833;53.238;6.576;2023-06-14T15:27:57;2.83;;;0.50;;
54929;SDS011;40833;53.238;6.576;2023-06-14T15:30:23;3.45;;;0.52;;
54929;SDS011;40833;53.238;6.576;2023-06-14T15:32:49;2.35;;;0.55;;
54929;SDS011;40833;53.238;6.576;2023-06-14T15:35:16;7.38;;;0.52;;
54929;SDS011;40833;53.238;6.576;2023-06-14T15:37:46;5.57;;;0.70;;
54929;SDS011;40833;53.238;6.576;2023-06-14T15:40:12;3.10;;;0.40;;
54929;SDS011;40833;53.238;6.576;2023-06-14T15:42:38;5.20;;;0.68;;
54929;SDS011;40833;53.238;6.576;2023-06-14T15:45:04;3.88;;;0.63;;
54929;SDS011;40833;53.238;6.576;2023-06-14T15:47:30;4.07;;;0.93;;
54929;SDS011;40833;53.238;6.576;2023-06-14T15:49:56;7.00;;;0.60;;
54929;SDS011;40833;53.238;6.576;2023-06-14T15:52:21;6.70;;;1.00;;
54929;SDS011;40833;53.238;6.576;2023-06-14T15:54:47;3.33;;;0.75;;
54929;SDS011;40833;53.238;6.576;2023-06-14T15:57:13;3.17;;;0.60;;
54929;SDS011;40833;53.238;6.576;2023-06-14T15:59:38;3.85;;;1.10;;
54929;SDS011;40833;53.238;6.576;2023-06-14T16:02:04;3.03;;;0.90;;
54929;SDS011;40833;53.238;6.576;2023-06-14T16:04:30;7.18;;;1.20;;
54929;SDS011;40833;53.238;6.576;2023-06-14T16:06:56;3.72;;;1.45;;
54929;SDS011;40833;53.238;6.576;2023-06-14T16:09:21;2.97;;;0.95;;
54929;SDS011;40833;53.238;6.576;2023-06-14T16:11:48;7.47;;;1.63;;
54929;SDS011;40833;53.238;6.576;2023-06-14T16:14:13;6.85;;;1.30;;
54929;SDS011;40833;53.238;6.576;2023-06-14T16:16:39;4.70;;;1.25;;
54929;SDS011;40833;53.238;6.576;2023-06-14T16:19:05;11.35;;;1.25;;
54929;SDS011;40833;53.238;6.576;2023-06-14T16:21:31;4.97;;;1.00;;
54929;SDS011;40833;53.238;6.576;2023-06-14T16:24:02;6.40;;;1.05;;
54929;SDS011;40833;53.238;6.576;2023-06-14T16:26:28;5.30;;;1.50;;
54929;SDS011;40833;53.238;6.576;2023-06-14T16:28:55;4.00;;;1.08;;
54929;SDS011;40833;53.238;6.576;2023-06-14T16:31:20;4.65;;;1.25;;
54929;SDS011;40833;53.238;6.576;2023-06-14T16:33:47;2.97;;;1.00;;
54929;SDS011;40833;53.238;6.576;2023-06-14T16:36:19;2.90;;;1.40;;
54929;SDS011;40833;53.238;6.576;2023-06-14T16:38:46;2.20;;;1.10;;
54929;SDS011;40833;53.238;6.576;2023-06-14T16:41:12;5.10;;;1.60;;
54929;SDS011;40833;53.238;6.576;2023-06-14T16:43:38;6.75;;;1.60;;
54929;SDS011;40833;53.238;6.576;2023-06-14T16:46:04;2.65;;;1.02;;
54929;SDS011;40833;53.238;6.576;2023-06-14T16:48:29;7.13;;;1.02;;
54929;SDS011;40833;53.238;6.576;2023-06-14T16:50:55;5.18;;;1.20;;
54929;SDS011;40833;53.238;6.576;2023-06-14T16:53:21;3.00;;;0.98;;
54929;SDS011;40833;53.238;6.576;2023-06-14T16:55:46;4.35;;;1.17;;
54929;SDS011;40833;53.238;6.576;2023-06-14T16:58:12;2.50;;;1.20;;
54929;SDS011;40833;53.238;6.576;2023-06-14T17:00:38;3.65;;;0.95;;
54929;SDS011;40833;53.238;6.576;2023-06-14T17:03:03;5.40;;;1.23;;
54929;SDS011;40833;53.238;6.576;2023-06-14T17:05:32;3.22;;;0.70;;
54929;SDS011;40833;53.238;6.576;2023-06-14T17:07:58;4.78;;;1.00;;
54929;SDS011;40833;53.238;6.576;2023-06-14T17:10:25;6.22;;;1.20;;
54929;SDS011;40833;53.238;6.576;2023-06-14T17:12:52;6.15;;;1.05;;
54929;SDS011;40833;53.238;6.576;2023-06-14T17:15:18;3.22;;;1.08;;
54929;SDS011;40833;53.238;6.576;2023-06-14T17:17:44;5.25;;;1.00;;
54929;SDS011;40833;53.238;6.576;2023-06-14T17:20:10;1.98;;;1.00;;
54929;SDS011;40833;53.238;6.576;2023-06-14T17:22:36;3.58;;;1.00;;
54929;SDS011;40833;53.238;6.576;2023-06-14T17:25:02;5.88;;;1.35;;
54929;SDS011;40833;53.238;6.576;2023-06-14T17:27:27;8.90;;;1.38;;
54929;SDS011;40833;53.238;6.576;2023-06-14T17:29:53;4.57;;;1.02;;
54929;SDS011;40833;53.238;6.576;2023-06-14T17:32:19;7.05;;;1.23;;
54929;SDS011;40833;53.238;6.576;2023-06-14T17:34:45;4.07;;;1.27;;
54929;SDS011;40833;53.238;6.576;2023-06-14T17:37:11;4.65;;;1.08;;
54929;SDS011;40833;53.238;6.576;2023-06-14T17:39:36;2.90;;;1.00;;
54929;SDS011;40833;53.238;6.576;2023-06-14T17:42:05;3.03;;;0.90;;
54929;SDS011;40833;53.238;6.576;2023-06-14T17:44:31;5.03;;;1.10;;
54929;SDS011;40833;53.238;6.576;2023-06-14T17:46:56;5.07;;;0.70;;
54929;SDS011;40833;53.238;6.576;2023-06-14T17:49:22;9.15;;;0.98;;